Time;durP1;ratioP1;P1;durP2;ratioP2;P2;SDS_P1;SDS_P2;PMS_P1;PMS_P2;Temp;Humidity;BMP_temperature;BMP_pressure;BME280_temperature;BME280_humidity;BME280_pressure;Samples;Min_cycle;Max_cycle;Signal;HPM_P1;HPM_P2
2022/05/25 00:00:22;;;;;;;2.50;0.87;;;19.50;84.90;;;;;;5050809;28;20464;-73
2022/05/25 00:02:48;;;;;;;2.00;1.07;;;19.50;85.00;;;;;;5017387;28;20466;-73
2022/05/25 00:05:18;;;;;;;1.27;0.90;;;19.50;85.00;;;;;;5034992;28;20793;-73
2022/05/25 00:07:47;;;;;;;2.50;1.00;;;19.50;85.00;;;;;;5035619;28;21103;-73
2022/05/25 00:10:13;;;;;;;1.30;1.00;;;19.50;85.00;;;;;;5034517;28;20984;-73
2022/05/25 00:12:41;;;;;;;1.43;0.90;;;19.40;85.00;;;;;;5033273;28;20423;-73
2022/05/25 00:15:16;;;;;;;2.30;0.93;;;19.40;84.90;;;;;;5035353;28;20442;-73
2022/05/25 00:17:42;;;;;;;1.73;1.10;;;19.40;84.90;;;;;;5001335;28;20431;-73
2022/05/25 00:20:10;;;;;;;1.40;0.97;;;19.40;85.00;;;;;;5034975;28;20470;-73
2022/05/25 00:22:51;;;;;;;2.10;1.00;;;19.40;85.00;;;;;;5033581;28;20464;-73
2022/05/25 00:25:24;;;;;;;1.60;1.10;;;19.40;85.00;;;;;;5033982;28;20502;-73
2022/05/25 00:27:52;;;;;;;1.10;0.80;;;19.40;85.10;;;;;;5017570;28;20417;-73
2022/05/25 00:30:18;;;;;;;2.20;1.07;;;19.40;85.10;;;;;;5112290;22;20808;-70
2022/05/25 00:32:45;;;;;;;2.77;1.00;;;19.40;85.20;;;;;;5040200;28;20502;-70
2022/05/25 00:35:16;;;;;;;1.97;0.87;;;19.40;85.10;;;;;;5034805;28;20388;-69
2022/05/25 00:37:42;;;;;;;1.90;1.13;;;19.30;85.00;;;;;;5054161;28;20469;-70
2022/05/25 00:40:14;;;;;;;2.50;0.80;;;19.30;85.10;;;;;;5051768;28;20511;-70
2022/05/25 00:42:40;;;;;;;2.10;1.00;;;19.30;85.00;;;;;;5073083;28;20514;-70
2022/05/25 00:45:07;;;;;;;1.53;0.90;;;19.30;85.10;;;;;;5025721;28;20491;-69
2022/05/25 00:47:39;;;;;;;1.13;0.83;;;19.30;85.00;;;;;;5069679;28;20398;-70
2022/05/25 00:50:08;;;;;;;1.10;0.80;;;19.30;85.10;;;;;;5066284;28;20460;-69
2022/05/25 00:52:34;;;;;;;2.20;1.10;;;19.30;85.10;;;;;;5053298;28;20832;-70
2022/05/25 00:55:04;;;;;;;1.60;1.17;;;19.20;85.00;;;;;;5071452;28;20904;-70
2022/05/25 00:57:42;;;;;;;2.37;1.40;;;19.20;85.00;;;;;;5062098;28;20476;-70
2022/05/25 01:00:13;;;;;;;1.33;1.10;;;19.20;85.00;;;;;;5054353;28;20472;-70
2022/05/25 01:02:51;;;;;;;1.87;0.97;;;19.20;85.00;;;;;;5072886;28;20506;-70
2022/05/25 01:05:21;;;;;;;0.70;0.70;;;19.20;85.00;;;;;;5071999;28;20406;-70
2022/05/25 01:08:17;;;;;;;1.73;0.97;;;19.20;85.10;;;;;;5065971;28;20422;-70
2022/05/25 01:11:16;;;;;;;1.17;0.90;;;19.20;85.10;;;;;;5068882;28;20452;-69
2022/05/25 01:14:30;;;;;;;3.50;1.30;;;19.10;85.00;;;;;;5036142;28;20423;-70
2022/05/25 01:17:13;;;;;;;1.60;1.10;;;19.10;85.00;;;;;;5062759;28;20453;-70
2022/05/25 01:19:42;;;;;;;1.40;0.80;;;19.10;85.00;;;;;;5072716;28;20437;-70
2022/05/25 01:22:46;;;;;;;0.83;0.67;;;19.10;85.00;;;;;;5055865;28;20443;-70
2022/05/25 01:25:11;;;;;;;1.40;0.90;;;19.10;85.00;;;;;;5052689;28;20828;-70
2022/05/25 01:27:43;;;;;;;0.80;0.80;;;19.10;85.00;;;;;;5036469;28;20469;-70
2022/05/25 01:30:30;;;;;;;2.97;1.27;;;19.10;85.10;;;;;;5052359;28;20468;-70
2022/05/25 01:33:51;;;;;;;1.57;0.80;;;19.00;85.00;;;;;;5051968;28;20448;-70
2022/05/25 01:36:33;;;;;;;1.57;0.90;;;19.00;85.00;;;;;;4975332;28;20430;-70
2022/05/25 01:39:23;;;;;;;1.23;0.93;;;19.00;84.90;;;;;;4973994;28;20433;-70
2022/05/25 01:42:03;;;;;;;2.03;1.13;;;19.00;85.00;;;;;;4960307;28;20560;-69
2022/05/25 01:44:42;;;;;;;2.93;1.30;;;19.00;85.00;;;;;;4956098;28;20442;-69
2022/05/25 01:47:11;;;;;;;1.37;0.97;;;19.00;85.00;;;;;;4972281;28;20485;-70
2022/05/25 01:50:08;;;;;;;1.30;1.07;;;18.90;84.90;;;;;;4968639;28;20539;-70
2022/05/25 01:52:43;;;;;;;1.97;1.13;;;18.90;84.90;;;;;;4950389;28;20550;-70
2022/05/25 01:55:16;;;;;;;2.27;1.00;;;18.90;84.90;;;;;;4955912;28;20435;-70
2022/05/25 01:57:48;;;;;;;1.40;1.00;;;18.90;84.90;;;;;;4969015;28;20548;-70
2022/05/25 02:00:41;;;;;;;1.00;0.77;;;18.90;84.80;;;;;;4990965;28;20576;-70
2022/05/25 02:05:58;;;;;;;1.73;1.00;;;18.90;84.80;;;;;;4988573;28;20448;-70
2022/05/25 02:09:02;;;;;;;2.50;1.17;;;18.90;84.80;;;;;;5065429;28;20430;-70
2022/05/25 02:11:43;;;;;;;1.10;1.00;;;18.80;84.70;;;;;;5054983;28;20440;-70
2022/05/25 02:14:28;;;;;;;1.73;1.30;;;18.80;84.80;;;;;;5072848;28;20441;-70
2022/05/25 02:17:26;;;;;;;2.30;1.70;;;18.80;84.80;;;;;;5064998;28;20430;-70
2022/05/25 02:20:23;;;;;;;2.40;2.20;;;18.80;84.80;;;;;;5052154;28;20437;-70
2022/05/25 02:22:59;;;;;;;2.53;1.30;;;18.80;84.80;;;;;;5064340;28;20513;-70
2022/05/25 02:25:48;;;;;;;3.40;1.23;;;18.80;84.80;;;;;;5068969;28;20506;-69
2022/05/25 02:28:22;;;;;;;1.33;0.97;;;18.80;84.80;;;;;;5034925;28;20409;-70
2022/05/25 02:30:52;;;;;;;1.80;1.20;;;18.70;84.70;;;;;;5058027;28;20493;-70
2022/05/25 02:33:33;;;;;;;2.40;1.20;;;18.70;85.50;;;;;;5036931;28;20466;-70
2022/05/25 02:36:00;;;;;;;1.90;1.33;;;18.70;84.70;;;;;;5058626;28;20914;-69
2022/05/25 02:38:27;;;;;;;1.53;1.10;;;18.70;84.70;;;;;;5052004;28;20429;-70
2022/05/25 02:41:10;;;;;;;1.20;1.10;;;18.70;84.70;;;;;;5070481;28;20491;-70
2022/05/25 02:43:38;;;;;;;5.73;1.40;;;18.70;84.70;;;;;;5037519;28;20496;-70
2022/05/25 02:46:08;;;;;;;1.63;1.37;;;18.70;84.70;;;;;;5050882;28;20515;-70
2022/05/25 02:48:38;;;;;;;3.47;1.50;;;18.70;84.60;;;;;;5018057;28;20410;-70
2022/05/25 02:51:04;;;;;;;1.10;0.97;;;18.70;84.70;;;;;;5050266;28;20486;-70
2022/05/25 02:53:34;;;;;;;1.73;1.10;;;18.60;84.60;;;;;;5034663;28;20430;-70
2022/05/25 02:56:03;;;;;;;1.50;1.27;;;18.60;84.50;;;;;;5047904;28;20433;-70
2022/05/25 02:58:29;;;;;;;1.43;1.23;;;18.60;84.50;;;;;;5071059;28;20440;-70
2022/05/25 03:00:55;;;;;;;1.90;1.20;;;18.60;84.50;;;;;;5070112;28;20460;-70
2022/05/25 03:03:22;;;;;;;1.83;1.17;;;18.60;84.50;;;;;;5053979;28;20577;-69
2022/05/25 03:05:48;;;;;;;2.70;1.43;;;18.60;84.60;;;;;;5062364;28;20420;-70
2022/05/25 03:08:14;;;;;;;4.80;1.23;;;18.60;84.60;;;;;;5053558;28;20436;-69
2022/05/25 03:10:40;;;;;;;1.80;1.37;;;18.50;84.50;;;;;;5068347;28;20441;-70
2022/05/25 03:13:11;;;;;;;2.50;1.10;;;18.50;84.60;;;;;;5064965;28;20908;-70
2022/05/25 03:15:37;;;;;;;1.97;1.00;;;18.50;84.60;;;;;;5034421;28;20796;-70
2022/05/25 03:18:05;;;;;;;5.10;1.60;;;18.50;84.60;;;;;;5034439;28;20461;-69
2022/05/25 03:20:33;;;;;;;2.30;1.30;;;18.50;84.70;;;;;;5058337;28;20953;-70
2022/05/25 03:22:59;;;;;;;1.57;1.20;;;18.50;85.60;;;;;;5069336;28;20544;-70
2022/05/25 03:25:25;;;;;;;3.00;1.50;;;18.50;84.80;;;;;;5034442;28;20513;-70
2022/05/25 03:27:54;;;;;;;2.20;1.40;;;18.50;84.90;;;;;;5051760;28;20445;-70
2022/05/25 03:30:21;;;;;;;1.93;1.20;;;18.50;84.90;;;;;;5070105;28;20457;-70
2022/05/25 03:32:47;;;;;;;3.03;1.40;;;18.50;85.00;;;;;;5056819;28;20432;-70
2022/05/25 03:35:16;;;;;;;1.70;1.17;;;18.50;85.10;;;;;;5050569;28;20969;-70
2022/05/25 03:37:43;;;;;;;1.20;1.10;;;18.40;84.90;;;;;;5051873;28;20428;-70
2022/05/25 03:40:14;;;;;;;4.87;1.60;;;18.40;85.00;;;;;;5033894;28;20817;-70
2022/05/25 03:42:45;;;;;;;1.87;1.30;;;18.40;85.00;;;;;;5064685;28;20969;-69
2022/05/25 03:45:13;;;;;;;1.93;1.40;;;18.40;85.10;;;;;;5069127;28;20811;-70
2022/05/25 03:47:41;;;;;;;2.13;1.50;;;18.40;85.20;;;;;;5051519;28;20402;-70
2022/05/25 03:50:09;;;;;;;2.13;1.63;;;18.40;85.20;;;;;;5059113;28;20498;-70
2022/05/25 03:52:36;;;;;;;4.97;1.77;;;18.40;85.30;;;;;;5058972;28;20274;-70
2022/05/25 03:55:06;;;;;;;5.17;1.73;;;18.40;85.30;;;;;;5057994;28;20421;-70
2022/05/25 03:57:32;;;;;;;3.40;1.57;;;18.40;85.30;;;;;;5053420;28;20462;-69
2022/05/25 03:59:58;;;;;;;2.20;1.40;;;18.40;85.30;;;;;;5063568;28;20548;-70
2022/05/25 04:02:24;;;;;;;2.60;2.30;;;18.30;85.20;;;;;;5043909;28;20503;-70
2022/05/25 04:05:07;;;;;;;1.57;1.40;;;18.30;85.30;;;;;;5066226;28;20421;-69
2022/05/25 04:07:43;;;;;;;1.40;1.30;;;18.30;85.30;;;;;;5065289;28;20455;-70
2022/05/25 04:10:14;;;;;;;2.00;1.40;;;18.30;85.30;;;;;;5065492;28;20441;-70
2022/05/25 04:12:42;;;;;;;1.63;1.50;;;18.30;85.30;;;;;;5057744;28;20425;-70
2022/05/25 04:15:10;;;;;;;4.00;1.83;;;18.30;85.30;;;;;;5057435;28;20897;-70
2022/05/25 04:17:43;;;;;;;4.00;1.73;;;18.30;85.40;;;;;;5048613;28;20477;-70
2022/05/25 04:20:10;;;;;;;1.50;1.37;;;18.30;85.40;;;;;;5049673;28;20468;-70
2022/05/25 04:22:36;;;;;;;1.60;1.27;;;18.30;85.40;;;;;;5033542;28;20470;-70
2022/05/25 04:25:07;;;;;;;3.33;1.57;;;18.30;85.40;;;;;;5053205;28;20424;-68
2022/05/25 04:27:34;;;;;;;3.10;1.70;;;18.30;85.60;;;;;;5054928;28;20425;-70
2022/05/25 04:30:04;;;;;;;2.13;1.40;;;18.20;85.50;;;;;;5053471;28;20476;-70
2022/05/25 04:32:30;;;;;;;2.40;1.43;;;18.20;85.50;;;;;;5062502;28;20896;-69
2022/05/25 04:34:59;;;;;;;1.50;1.40;;;18.20;85.50;;;;;;5054501;28;20906;-70
2022/05/25 04:40:11;;;;;;;2.13;1.60;;;18.20;85.60;;;;;;5107780;28;20444;-70
2022/05/25 04:42:43;;;;;;;3.77;1.67;;;18.20;85.60;;;;;;5061087;28;20503;-70
2022/05/25 04:45:12;;;;;;;3.73;1.33;;;18.20;85.60;;;;;;5065865;28;20780;-70
2022/05/25 04:47:43;;;;;;;3.47;1.40;;;18.20;85.70;;;;;;5056508;28;20398;-70
2022/05/25 04:50:12;;;;;;;2.07;1.37;;;18.20;85.70;;;;;;5024929;28;20446;-70
2022/05/25 04:52:39;;;;;;;3.83;1.77;;;18.20;85.70;;;;;;5037023;28;20792;-70
2022/05/25 04:55:07;;;;;;;3.43;1.50;;;18.10;85.70;;;;;;5054066;28;20441;-70
2022/05/25 04:57:35;;;;;;;1.77;1.50;;;18.10;85.70;;;;;;5053340;28;20500;-70
2022/05/25 05:00:05;;;;;;;3.70;1.53;;;18.10;85.70;;;;;;5049760;28;20466;-69
2022/05/25 05:02:36;;;;;;;1.57;1.47;;;18.10;85.70;;;;;;5073139;28;20456;-70
2022/05/25 05:05:02;;;;;;;2.37;1.80;;;18.10;85.70;;;;;;5073036;28;20789;-70
2022/05/25 05:07:31;;;;;;;2.67;1.80;;;18.10;85.80;;;;;;5070010;28;20163;-70
2022/05/25 05:09:58;;;;;;;4.10;1.93;;;18.10;85.80;;;;;;5062392;28;20531;-70
2022/05/25 05:12:24;;;;;;;2.50;1.70;;;18.10;85.80;;;;;;5064303;28;20460;-70
2022/05/25 05:15:03;;;;;;;1.87;1.50;;;18.10;85.90;;;;;;5056669;28;21088;-70
2022/05/25 05:17:31;;;;;;;1.67;1.40;;;18.00;85.80;;;;;;5064002;28;20429;-69
2022/05/25 05:20:17;;;;;;;2.97;2.07;;;18.00;85.80;;;;;;5052871;28;20451;-70
2022/05/25 05:22:43;;;;;;;2.70;1.67;;;18.00;85.90;;;;;;5063354;28;20751;-70
2022/05/25 05:25:09;;;;;;;1.77;1.30;;;18.00;86.00;;;;;;5056922;28;20899;-70
2022/05/25 05:27:37;;;;;;;3.53;1.53;;;18.00;86.00;;;;;;5061771;28;20929;-70
2022/05/25 05:30:12;;;;;;;2.53;1.67;;;18.00;86.10;;;;;;5073921;28;20582;-70
2022/05/25 05:32:40;;;;;;;2.60;1.90;;;18.00;86.10;;;;;;5063155;28;20453;-70
2022/05/25 05:35:09;;;;;;;2.57;1.90;;;18.00;86.10;;;;;;5067915;28;20965;-69
2022/05/25 05:37:48;;;;;;;5.23;1.93;;;18.00;86.10;;;;;;5066537;28;20426;-70
2022/05/25 05:40:16;;;;;;;2.93;1.53;;;17.90;86.10;;;;;;5065804;28;20978;-70
2022/05/25 05:42:49;;;;;;;3.13;1.80;;;17.90;86.10;;;;;;5053210;28;20959;-69
2022/05/25 05:45:20;;;;;;;3.77;2.00;;;17.90;86.10;;;;;;5053375;28;20461;-70
2022/05/25 05:48:08;;;;;;;2.23;1.93;;;17.90;86.20;;;;;;5058704;28;20441;-69
2022/05/25 05:50:40;;;;;;;2.50;2.00;;;17.90;86.20;;;;;;5051182;28;20438;-69
2022/05/25 05:53:08;;;;;;;2.37;1.63;;;17.90;86.30;;;;;;5067734;28;20889;-69
2022/05/25 05:55:36;;;;;;;3.87;1.80;;;17.90;86.40;;;;;;5036490;28;20790;-70
2022/05/25 05:58:03;;;;;;;2.57;1.90;;;17.90;86.40;;;;;;5052424;28;20428;-69
2022/05/25 06:00:31;;;;;;;2.87;1.50;;;17.90;86.50;;;;;;5051886;28;20437;-70
2022/05/25 06:02:58;;;;;;;4.77;2.03;;;17.90;86.50;;;;;;5064578;28;20464;-69
2022/05/25 06:05:24;;;;;;;5.50;1.70;;;17.90;86.50;;;;;;5069048;28;20452;-70
2022/05/25 06:07:50;;;;;;;3.30;1.77;;;17.90;86.60;;;;;;5038884;28;20469;-70
2022/05/25 06:10:16;;;;;;;2.07;1.50;;;17.80;86.60;;;;;;5051164;28;20465;-69
2022/05/25 06:12:44;;;;;;;2.40;1.60;;;17.80;86.60;;;;;;5035123;28;20801;-69
2022/05/25 06:20:51;;;;;;;2.80;1.70;;;17.90;86.80;;;;;;5035186;28;20503;-70
2022/05/25 06:23:17;;;;;;;2.20;2.00;;;17.80;86.70;;;;;;5068250;28;20459;-69
2022/05/25 06:25:43;;;;;;;4.63;2.00;;;17.80;86.80;;;;;;5052912;28;20447;-69
2022/05/25 06:28:14;;;;;;;4.90;1.90;;;17.80;86.80;;;;;;5051628;28;20435;-69
2022/05/25 06:30:40;;;;;;;1.73;1.50;;;17.80;86.80;;;;;;5050936;28;20480;-69
2022/05/25 06:33:11;;;;;;;4.10;1.90;;;17.80;86.80;;;;;;5052549;28;20417;-69
2022/05/25 06:35:37;;;;;;;3.43;2.20;;;17.80;86.80;;;;;;5037610;28;20427;-69
2022/05/25 06:38:03;;;;;;;5.00;1.77;;;17.80;86.80;;;;;;5071310;28;20710;-70
2022/05/25 06:40:32;;;;;;;3.23;2.20;;;17.80;86.80;;;;;;5068403;28;20448;-69
2022/05/25 06:42:58;;;;;;;4.50;2.10;;;17.80;86.80;;;;;;5070773;28;20470;-70
2022/05/25 06:45:25;;;;;;;3.73;1.70;;;17.80;86.70;;;;;;5053064;28;20978;-70
2022/05/25 06:47:51;;;;;;;3.63;1.80;;;17.80;86.70;;;;;;5068172;28;20527;-70
2022/05/25 06:50:18;;;;;;;4.83;2.10;;;17.80;86.70;;;;;;5067882;28;20447;-69
2022/05/25 06:52:51;;;;;;;4.40;1.87;;;17.80;86.70;;;;;;5071186;28;20454;-69
2022/05/25 06:55:21;;;;;;;4.97;2.07;;;17.80;86.70;;;;;;5037575;28;20418;-70
2022/05/25 06:57:50;;;;;;;2.77;1.70;;;17.80;86.70;;;;;;5052506;28;20450;-69
2022/05/25 07:00:16;;;;;;;3.37;1.93;;;17.80;86.70;;;;;;5051295;28;20995;-69
2022/05/25 07:02:47;;;;;;;3.23;2.07;;;17.80;86.70;;;;;;5064074;28;20449;-69
2022/05/25 07:05:13;;;;;;;2.67;2.03;;;17.80;86.70;;;;;;5055567;28;20424;-70
2022/05/25 07:07:41;;;;;;;3.90;2.07;;;17.80;86.70;;;;;;5046439;28;20511;-70
2022/05/25 07:10:08;;;;;;;3.50;1.60;;;17.80;86.70;;;;;;5071287;28;20535;-69
2022/05/25 07:12:36;;;;;;;1.53;1.33;;;17.80;86.70;;;;;;5070230;28;20482;-70
2022/05/25 07:15:03;;;;;;;2.70;1.70;;;17.80;86.70;;;;;;5040202;28;20454;-69
2022/05/25 07:17:33;;;;;;;2.33;1.57;;;17.80;86.70;;;;;;5050841;28;20423;-69
2022/05/25 07:20:06;;;;;;;4.40;1.90;;;17.80;86.60;;;;;;5066240;28;20488;-69
2022/05/25 07:22:33;;;;;;;2.53;1.70;;;17.80;86.60;;;;;;5069984;28;20961;-69
2022/05/25 07:25:01;;;;;;;2.60;1.87;;;17.80;86.50;;;;;;5066971;28;20436;-69
2022/05/25 07:27:34;;;;;;;3.43;1.70;;;17.80;86.40;;;;;;5054402;28;20469;-69
2022/05/25 07:30:05;;;;;;;3.17;1.47;;;17.80;86.30;;;;;;5071204;28;20668;-69
2022/05/25 07:32:34;;;;;;;2.87;1.40;;;17.80;86.20;;;;;;5070792;28;20573;-69
2022/05/25 07:35:07;;;;;;;3.10;1.20;;;17.80;86.20;;;;;;5053407;28;20424;-69
2022/05/25 07:37:38;;;;;;;2.70;1.60;;;17.90;86.30;;;;;;5034336;28;20445;-69
2022/05/25 07:40:08;;;;;;;3.90;1.27;;;17.90;86.30;;;;;;5051645;28;20460;-69
2022/05/25 07:42:37;;;;;;;1.83;1.53;;;17.90;86.20;;;;;;5042365;28;21047;-69
2022/05/25 07:45:04;;;;;;;2.60;1.33;;;17.90;86.30;;;;;;5068698;28;20460;-69
2022/05/25 07:47:32;;;;;;;2.00;1.40;;;17.90;86.20;;;;;;5051498;28;20438;-69
2022/05/25 07:49:59;;;;;;;1.87;1.20;;;17.90;86.20;;;;;;5072077;28;20443;-69
2022/05/25 07:52:30;;;;;;;2.23;1.33;;;17.90;86.30;;;;;;5061437;28;20464;-69
2022/05/25 07:54:59;;;;;;;1.87;1.13;;;17.90;86.30;;;;;;5068723;28;20430;-69
2022/05/25 07:57:26;;;;;;;1.97;1.20;;;18.00;86.40;;;;;;5041146;28;20533;-69
2022/05/25 07:59:54;;;;;;;2.93;1.30;;;18.00;86.30;;;;;;5070201;28;20516;-69
2022/05/25 08:08:05;;;;;;;1.70;1.40;;;18.00;86.10;;;;;;5070104;28;20585;-69
2022/05/25 08:10:36;;;;;;;2.10;1.20;;;18.00;86.10;;;;;;5055923;28;20444;-69
2022/05/25 08:13:05;;;;;;;4.10;1.30;;;18.10;86.30;;;;;;5072630;28;20424;-69
2022/05/25 08:15:34;;;;;;;1.90;1.40;;;18.10;86.20;;;;;;5074024;28;20409;-69
2022/05/25 08:18:05;;;;;;;2.00;1.20;;;18.10;86.10;;;;;;5055378;28;20437;-69
2022/05/25 08:20:38;;;;;;;4.10;1.23;;;18.10;86.00;;;;;;5055979;28;20446;-69
2022/05/25 08:23:09;;;;;;;1.47;1.23;;;18.20;86.00;;;;;;5052223;28;20548;-69
2022/05/25 08:25:37;;;;;;;2.60;1.20;;;18.20;86.00;;;;;;5038348;28;20425;-69
2022/05/25 08:28:06;;;;;;;1.80;1.10;;;18.20;85.80;;;;;;5070567;28;20398;-69
2022/05/25 08:30:35;;;;;;;1.20;0.80;;;18.20;85.70;;;;;;5055920;28;20451;-69
2022/05/25 08:33:04;;;;;;;1.00;0.87;;;18.20;85.60;;;;;;5058435;28;20512;-69
2022/05/25 08:35:32;;;;;;;1.63;0.80;;;18.20;85.50;;;;;;5054320;28;20442;-69
2022/05/25 08:37:58;;;;;;;2.23;1.17;;;18.30;85.40;;;;;;5067792;28;20949;-69
2022/05/25 08:40:29;;;;;;;1.80;1.20;;;18.30;85.30;;;;;;5072870;28;20453;-69
2022/05/25 08:42:58;;;;;;;1.80;1.00;;;18.30;85.30;;;;;;5070592;28;20563;-69
2022/05/25 08:45:47;;;;;;;2.10;1.10;;;18.40;85.20;;;;;;5070541;28;20413;-69
2022/05/25 08:48:19;;;;;;;2.57;1.07;;;18.30;85.00;;;;;;5074084;28;20428;-69
2022/05/25 08:50:53;;;;;;;1.37;0.90;;;18.40;84.90;;;;;;5055016;28;21056;-69
2022/05/25 08:53:24;;;;;;;2.00;1.00;;;18.40;84.80;;;;;;5056369;28;20452;-69
2022/05/25 08:56:15;;;;;;;0.93;0.83;;;18.40;84.70;;;;;;5074752;28;20814;-69
2022/05/25 08:59:02;;;;;;;2.80;1.50;;;18.40;84.50;;;;;;5072602;28;21127;-69
2022/05/25 09:01:34;;;;;;;2.57;0.80;;;18.50;84.50;;;;;;5073368;28;20949;-69
2022/05/25 09:04:05;;;;;;;1.60;0.73;;;18.50;84.40;;;;;;5061147;28;20465;-69
2022/05/25 09:06:45;;;;;;;3.40;0.97;;;18.50;84.20;;;;;;5055105;28;20393;-69
2022/05/25 09:09:23;;;;;;;1.20;0.77;;;18.50;84.10;;;;;;5078129;28;20444;-69
2022/05/25 09:12:01;;;;;;;1.67;1.03;;;18.60;84.00;;;;;;5089147;28;20474;-69
2022/05/25 09:14:46;;;;;;;2.60;1.27;;;18.60;83.70;;;;;;5071957;28;20555;-69
2022/05/25 09:17:22;;;;;;;1.20;0.70;;;18.60;83.30;;;;;;5066751;28;20988;-69
2022/05/25 09:19:54;;;;;;;1.50;0.83;;;18.60;82.90;;;;;;5052966;28;20555;-69
2022/05/25 09:22:24;;;;;;;1.00;0.70;;;18.70;82.90;;;;;;5059544;28;20834;-69
2022/05/25 09:24:54;;;;;;;2.07;0.70;;;18.70;82.70;;;;;;5072777;28;20401;-69
2022/05/25 09:27:26;;;;;;;1.00;0.80;;;18.70;82.40;;;;;;5066203;28;20431;-69
2022/05/25 09:29:58;;;;;;;1.47;0.80;;;18.80;82.60;;;;;;5053878;28;20502;-70
2022/05/25 09:33:07;;;;;;;0.93;0.67;;;18.80;82.50;;;;;;5061348;28;20809;-69
2022/05/25 09:35:40;;;;;;;1.60;0.70;;;18.80;82.30;;;;;;5044422;28;20809;-69
2022/05/25 09:38:27;;;;;;;4.27;1.00;;;18.90;82.20;;;;;;5042984;28;20561;-69
2022/05/25 09:40:53;;;;;;;1.40;0.80;;;18.90;81.90;;;;;;5035908;28;20442;-69
2022/05/25 09:43:24;;;;;;;1.57;0.70;;;18.90;81.80;;;;;;5067012;28;20485;-68
2022/05/25 09:45:53;;;;;;;3.13;0.83;;;19.00;81.50;;;;;;5061741;28;20918;-69
2022/05/25 09:48:31;;;;;;;1.90;0.80;;;19.00;81.40;;;;;;5058138;28;20787;-69
2022/05/25 09:51:04;;;;;;;1.63;0.90;;;19.00;81.10;;;;;;5052075;28;20437;-69
2022/05/25 09:53:47;;;;;;;1.10;0.90;;;19.00;81.10;;;;;;5071967;28;20499;-70
2022/05/25 09:56:36;;;;;;;0.93;0.73;;;19.10;81.10;;;;;;5071676;28;20964;-71
2022/05/25 09:59:06;;;;;;;2.80;0.93;;;19.10;80.90;;;;;;5057558;28;20441;-71
2022/05/25 10:01:52;;;;;;;1.00;0.80;;;19.20;81.20;;;;;;5070598;28;20520;-71
2022/05/25 10:04:52;;;;;;;1.57;0.73;;;19.20;81.00;;;;;;5052086;28;20926;-70
2022/05/25 10:07:20;;;;;;;4.60;0.83;;;19.20;80.80;;;;;;5073010;28;20902;-70
2022/05/25 10:09:51;;;;;;;1.30;0.70;;;19.30;80.70;;;;;;5055187;28;20453;-71
2022/05/25 10:12:28;;;;;;;1.17;0.80;;;19.30;80.80;;;;;;5072339;28;20493;-69
2022/05/25 10:15:04;;;;;;;0.70;0.70;;;19.40;80.60;;;;;;5071283;28;20436;-68
2022/05/25 10:17:53;;;;;;;1.37;0.80;;;19.40;80.30;;;;;;5071500;28;20426;-68
2022/05/25 10:20:30;;;;;;;1.47;0.70;;;19.40;80.00;;;;;;5068141;28;20966;-68
2022/05/25 10:23:07;;;;;;;1.03;0.77;;;19.50;79.90;;;;;;5071611;28;20844;-67
2022/05/25 10:25:33;;;;;;;1.40;0.77;;;19.50;79.60;;;;;;5071630;28;20412;-69
2022/05/25 10:28:00;;;;;;;2.40;0.70;;;19.60;79.30;;;;;;5042636;28;20435;-68
2022/05/25 10:37:09;;;;;;;1.87;0.70;;;19.70;79.20;;;;;;4952393;28;20821;-72
2022/05/25 10:39:45;;;;;;;1.03;0.80;;;19.70;79.00;;;;;;4986753;28;21080;-72
2022/05/25 10:42:29;;;;;;;1.33;0.80;;;19.80;79.00;;;;;;5035091;28;20532;-72
2022/05/25 10:45:20;;;;;;;1.20;0.80;;;19.80;78.90;;;;;;5065230;28;20567;-72
2022/05/25 10:47:52;;;;;;;1.03;0.87;;;19.80;78.70;;;;;;5069457;28;20902;-71
2022/05/25 10:50:32;;;;;;;0.90;0.70;;;19.90;78.60;;;;;;5069951;28;20427;-72
2022/05/25 10:53:19;;;;;;;0.80;0.70;;;19.90;78.60;;;;;;5060380;28;20496;-71
2022/05/25 10:56:33;;;;;;;1.33;0.90;;;20.00;78.40;;;;;;5053984;28;20832;-72
2022/05/25 10:59:18;;;;;;;1.00;0.90;;;20.00;77.70;;;;;;5062751;28;20441;-72
2022/05/25 11:02:06;;;;;;;1.73;0.80;;;20.00;77.00;;;;;;5071301;28;20401;-72
2022/05/25 11:04:54;;;;;;;1.10;0.67;;;20.10;76.40;;;;;;5044776;28;20506;-71
2022/05/25 11:07:33;;;;;;;1.20;0.70;;;20.10;75.30;;;;;;5057500;28;20526;-72
2022/05/25 11:10:17;;;;;;;1.00;0.90;;;20.10;74.70;;;;;;5054167;28;20776;-72
2022/05/25 11:13:09;;;;;;;0.87;0.60;;;20.20;74.60;;;;;;5072454;28;20529;-71
2022/05/25 11:16:07;;;;;;;2.70;1.10;;;20.20;74.20;;;;;;5053905;28;20424;-72
2022/05/25 11:18:33;;;;;;;3.17;1.03;;;20.20;74.60;;;;;;5035838;28;20446;-72
2022/05/25 11:21:20;;;;;;;0.90;0.77;;;20.30;74.30;;;;;;5048185;28;20503;-71
2022/05/25 11:24:14;;;;;;;0.80;0.70;;;20.30;74.40;;;;;;5063991;28;20489;-72
2022/05/25 11:26:41;;;;;;;1.13;0.80;;;20.40;74.20;;;;;;5006889;28;20419;-72
2022/05/25 11:29:24;;;;;;;2.50;0.80;;;20.40;74.00;;;;;;5060291;28;20542;-72
2022/05/25 11:32:04;;;;;;;0.97;0.57;;;20.40;74.10;;;;;;5071854;28;20507;-72
2022/05/25 11:34:34;;;;;;;2.17;0.80;;;20.50;73.90;;;;;;5056617;28;20424;-72
2022/05/25 11:37:18;;;;;;;2.40;0.63;;;20.50;73.80;;;;;;5054860;28;20552;-72
2022/05/25 11:40:09;;;;;;;1.17;0.60;;;20.50;73.70;;;;;;5074745;28;20433;-72
2022/05/25 11:43:12;;;;;;;2.30;0.90;;;20.60;74.00;;;;;;5074053;28;20495;-71
2022/05/25 11:45:59;;;;;;;1.50;0.80;;;20.60;73.90;;;;;;5057834;28;20466;-72
2022/05/25 11:48:43;;;;;;;1.00;0.90;;;20.70;73.60;;;;;;5075912;28;20458;-72
2022/05/25 11:51:35;;;;;;;1.20;0.73;;;20.70;73.40;;;;;;5054601;28;20842;-72
2022/05/25 11:54:03;;;;;;;0.93;0.70;;;20.80;74.00;;;;;;5057381;28;20452;-72
2022/05/25 11:56:34;;;;;;;2.20;1.07;;;20.80;72.60;;;;;;5074753;28;20434;-71
2022/05/25 11:59:16;;;;;;;1.20;0.83;;;20.80;72.80;;;;;;5058456;28;21050;-72
2022/05/25 12:01:56;;;;;;;4.37;0.80;;;20.90;73.00;;;;;;5037609;28;20422;-72
2022/05/25 12:04:55;;;;;;;0.87;0.70;;;20.90;72.70;;;;;;5055913;28;21146;-72
2022/05/25 12:07:40;;;;;;;1.30;0.90;;;21.00;72.70;;;;;;5057064;28;20462;-71
2022/05/25 12:10:32;;;;;;;3.10;0.90;;;21.00;72.50;;;;;;5075415;28;20442;-72
2022/05/25 12:13:25;;;;;;;1.43;0.80;;;21.10;72.60;;;;;;5054296;28;20470;-71
2022/05/25 12:16:00;;;;;;;0.80;0.70;;;21.10;72.90;;;;;;5055848;28;20422;-72
2022/05/25 12:18:52;;;;;;;1.47;0.80;;;21.10;72.70;;;;;;5075602;28;20399;-72
2022/05/25 12:21:28;;;;;;;2.67;0.80;;;21.20;72.90;;;;;;5071743;28;20463;-71
2022/05/25 12:24:34;;;;;;;1.00;0.90;;;21.20;72.70;;;;;;5058412;28;20451;-72
2022/05/25 12:27:06;;;;;;;1.20;0.67;;;21.20;72.90;;;;;;5034776;28;20429;-72
2022/05/25 12:29:47;;;;;;;2.07;0.80;;;21.30;72.90;;;;;;5054924;28;20452;-71
2022/05/25 12:32:16;;;;;;;1.10;0.80;;;21.30;72.30;;;;;;5057130;28;20439;-72
2022/05/25 12:34:46;;;;;;;0.97;0.70;;;21.30;71.90;;;;;;5073606;28;20505;-72
2022/05/25 12:37:40;;;;;;;1.57;0.87;;;21.40;72.30;;;;;;5072927;28;20468;-73
2022/05/25 12:40:34;;;;;;;0.90;0.80;;;21.40;72.00;;;;;;5059567;28;20850;-73
2022/05/25 12:43:02;;;;;;;1.00;0.90;;;21.40;71.50;;;;;;5075025;28;21018;-73
2022/05/25 12:48:31;;;;;;;4.33;0.70;;;21.50;71.40;;;;;;5037099;28;20435;-72
2022/05/25 12:51:10;;;;;;;0.97;0.83;;;21.50;70.60;;;;;;5069284;28;20953;-72
2022/05/25 12:53:49;;;;;;;1.17;0.70;;;21.60;70.80;;;;;;5075023;28;20426;-73
2022/05/25 12:56:21;;;;;;;1.00;0.90;;;21.60;70.80;;;;;;5045382;28;20447;-73
2022/05/25 12:58:50;;;;;;;1.90;0.80;;;21.60;70.70;;;;;;5054916;28;20926;-73
2022/05/25 13:01:22;;;;;;;1.37;0.70;;;21.70;70.30;;;;;;5036853;28;20424;-72
2022/05/25 13:03:48;;;;;;;2.67;0.80;;;21.70;69.80;;;;;;5070298;28;20472;-73
2022/05/25 13:06:37;;;;;;;1.07;0.63;;;21.70;69.40;;;;;;5069352;28;20446;-72
2022/05/25 13:09:12;;;;;;;5.57;0.83;;;21.80;68.70;;;;;;5055898;28;20463;-73
2022/05/25 13:11:55;;;;;;;2.20;1.00;;;21.80;68.40;;;;;;5083924;28;20448;-73
2022/05/25 13:14:25;;;;;;;3.17;0.70;;;21.80;67.90;;;;;;5073259;28;20451;-71
2022/05/25 13:16:54;;;;;;;2.00;0.80;;;21.80;67.10;;;;;;5065666;28;20865;-73
2022/05/25 13:19:45;;;;;;;0.70;0.60;;;21.90;67.40;;;;;;5065983;28;20472;-73
2022/05/25 13:22:25;;;;;;;5.03;0.70;;;21.90;67.60;;;;;;5075444;28;20460;-73
2022/05/25 13:25:05;;;;;;;1.50;0.77;;;21.90;67.50;;;;;;5076636;28;20461;-71
2022/05/25 13:28:02;;;;;;;1.43;0.77;;;22.00;67.40;;;;;;5053098;28;20406;-73
2022/05/25 13:30:59;;;;;;;2.17;0.73;;;22.00;67.40;;;;;;5052565;28;20457;-71
2022/05/25 13:33:39;;;;;;;2.60;1.07;;;22.00;67.80;;;;;;5057110;28;20417;-71
2022/05/25 13:36:13;;;;;;;2.13;0.80;;;22.00;67.50;;;;;;5073086;28;20453;-71
2022/05/25 13:39:03;;;;;;;1.37;1.03;;;22.00;67.10;;;;;;5069347;28;20417;-71
2022/05/25 13:42:04;;;;;;;0.80;0.60;;;22.10;66.20;;;;;;5052781;28;20974;-71
2022/05/25 13:45:02;;;;;;;1.07;0.73;;;22.10;65.60;;;;;;5053781;28;20438;-72
2022/05/25 13:47:30;;;;;;;1.40;1.03;;;22.10;65.60;;;;;;5057021;28;20518;-71
2022/05/25 13:49:58;;;;;;;1.73;0.80;;;22.10;65.50;;;;;;5024730;28;20515;-70
2022/05/25 13:52:29;;;;;;;1.47;0.80;;;22.10;65.60;;;;;;5071313;28;20432;-72